Time;durP1;ratioP1;P1;durP2;ratioP2;P2;SDS_P1;SDS_P2;PMS_P1;PMS_P2;Temp;Humidity;BMP_temperature;BMP_pressure;BME280_temperature;BME280_humidity;BME280_pressure;Samples;Min_cycle;Max_cycle;Signal;HPM_P1;HPM_P2
2022/01/14 00:01:39;;;;;;;;;;;;;;;-4.92;73.97;100986.00;5013839;28;1886;-57
2022/01/14 00:04:06;;;;;;;;;;;;;;;-5.17;75.26;100989.50;5013852;28;813;-57
2022/01/14 00:06:32;;;;;;;;;;;;;;;-5.49;76.44;100991.59;5013823;28;821;-57
2022/01/14 00:09:09;;;;;;;;;;;;;;;-5.68;77.87;100994.78;5013794;28;861;-57
2022/01/14 00:11:37;;;;;;;;;;;;;;;-5.60;78.03;100990.78;5013775;28;828;-57
2022/01/14 00:16:31;;;;;;;;;;;;;;;-5.35;77.15;100987.34;5013470;28;819;-57
2022/01/14 00:18:58;;;;;;;;;;;;;;;-5.41;77.19;100975.72;5013683;28;880;-57
2022/01/14 00:21:28;;;;;;;;;;;;;;;-5.38;77.03;100979.75;5013451;28;1890;-57
2022/01/14 00:24:06;;;;;;;;;;;;;;;-5.10;75.78;100977.66;5013389;28;892;-57
2022/01/14 00:32:14;;;;;;;;;;;;;;;-4.87;73.29;100958.22;5013344;28;691;-57
2022/01/14 00:34:41;;;;;;;;;;;;;;;-4.93;74.19;100962.00;5013045;28;1243;-57
2022/01/14 00:37:06;;;;;;;;;;;;;;;-5.21;74.99;100949.88;5013396;28;896;-57
2022/01/14 00:39:33;;;;;;;;;;;;;;;-5.64;75.97;100958.16;5013904;28;782;-57
2022/01/14 00:41:59;;;;;;;;;;;;;;;-5.85;76.97;100951.09;5013750;28;1906;-57
2022/01/14 00:44:26;;;;;;;;;;;;;;;-6.08;77.84;100950.53;5013057;28;837;-57
2022/01/14 00:46:52;;;;;;;;;;;;;;;-6.25;78.33;100957.97;5013103;28;856;-57
2022/01/14 00:49:20;;;;;;;;;;;;;;;-6.51;78.75;100957.81;5012960;28;871;-57
2022/01/14 00:51:48;;;;;;;;;;;;;;;-6.72;79.79;100953.38;5012917;28;906;-57
2022/01/14 00:54:16;;;;;;;;;;;;;;;-6.81;80.51;100950.38;5012984;28;844;-57
2022/01/14 00:59:16;;;;;;;;;;;;;;;-6.85;80.47;100947.41;5012275;28;705;-57
2022/01/14 01:01:50;;;;;;;;;;;;;;;-6.86;80.87;100943.09;5013077;28;1957;-57
2022/01/14 01:04:21;;;;;;;;;;;;;;;-6.85;81.05;100947.41;5012690;28;804;-57
2022/01/14 01:06:47;;;;;;;;;;;;;;;-6.78;81.14;100945.31;5012752;28;809;-57
2022/01/14 01:09:15;;;;;;;;;;;;;;;-6.59;80.80;100942.19;5012655;28;904;-57
2022/01/14 01:11:51;;;;;;;;;;;;;;;-6.40;80.31;100937.16;5012544;28;881;-57
2022/01/14 01:14:23;;;;;;;;;;;;;;;-6.23;79.74;100934.28;5012561;28;861;-57
2022/01/14 01:16:50;;;;;;;;;;;;;;;-6.17;79.97;100925.97;5012416;28;1181;-57
2022/01/14 01:19:17;;;;;;;;;;;;;;;-5.99;79.68;100934.69;5012332;28;938;-57
2022/01/14 01:21:43;;;;;;;;;;;;;;;-5.93;78.87;100938.97;5012370;28;1972;-57
2022/01/14 01:24:12;;;;;;;;;;;;;;;-6.02;78.24;100933.28;5012393;28;853;-57
2022/01/14 01:26:41;;;;;;;;;;;;;;;-5.75;77.53;100918.81;5012317;28;889;-57
2022/01/14 01:31:41;;;;;;;;;;;;;;;-5.39;75.34;100906.19;5012326;28;694;-57
2022/01/14 01:34:11;;;;;;;;;;;;;;;-5.39;75.08;100902.72;5011884;28;1456;-57
2022/01/14 01:36:39;;;;;;;;;;;;;;;-5.39;74.78;100908.09;5012272;28;912;-57
2022/01/14 01:39:07;;;;;;;;;;;;;;;-5.41;74.86;100908.34;5012336;28;882;-57
2022/01/14 01:41:36;;;;;;;;;;;;;;;-5.43;74.89;100899.72;5012070;28;1977;-57
2022/01/14 01:44:06;;;;;;;;;;;;;;;-5.32;73.95;100891.66;5012076;28;987;-57
2022/01/14 01:46:33;;;;;;;;;;;;;;;-5.31;73.44;100883.31;5012003;28;875;-57
2022/01/14 01:49:00;;;;;;;;;;;;;;;-5.40;73.10;100890.28;5012100;28;875;-57
2022/01/14 01:51:27;;;;;;;;;;;;;;;-5.51;73.56;100884.09;5011973;28;1084;-57
2022/01/14 01:53:53;;;;;;;;;;;;;;;-5.65;73.81;100869.56;5011933;28;861;-57
2022/01/14 01:56:19;;;;;;;;;;;;;;;-5.78;74.85;100871.69;5012217;28;881;-57
2022/01/14 01:58:46;;;;;;;;;;;;;;;-5.87;75.11;100880.53;5011900;28;903;-57
2022/01/14 02:01:13;;;;;;;;;;;;;;;-5.98;75.56;100872.47;5011671;28;1955;-57
2022/01/14 02:03:39;;;;;;;;;;;;;;;-6.11;76.57;100866.78;5011689;28;855;-57
2022/01/14 02:06:06;;;;;;;;;;;;;;;-6.23;77.53;100864.31;5011818;28;887;-58
2022/01/14 02:08:33;;;;;;;;;;;;;;;-6.44;77.96;100863.47;5011785;28;836;-57
2022/01/14 02:10:59;;;;;;;;;;;;;;;-6.65;78.44;100863.38;5011427;28;825;-57
2022/01/14 02:13:26;;;;;;;;;;;;;;;-6.85;80.28;100857.88;5011594;28;988;-57
2022/01/14 02:23:43;;;;;;;;;;;;;;;-7.65;81.87;100845.22;5011922;28;643;-57
2022/01/14 02:26:10;;;;;;;;;;;;;;;-7.62;82.68;100828.63;5011578;28;825;-57
2022/01/14 02:28:36;;;;;;;;;;;;;;;-7.52;82.88;100835.94;5011569;28;856;-57
2022/01/14 02:31:03;;;;;;;;;;;;;;;-7.62;81.91;100822.41;5011549;28;881;-57
2022/01/14 02:33:30;;;;;;;;;;;;;;;-7.54;82.18;100819.25;4993591;28;1376;-57
2022/01/14 02:35:56;;;;;;;;;;;;;;;-7.31;83.15;100828.84;5011909;28;1075;-57
2022/01/14 02:38:23;;;;;;;;;;;;;;;-6.89;82.45;100814.59;5011803;28;841;-57
2022/01/14 02:40:50;;;;;;;;;;;;;;;-6.55;80.17;100813.38;5011366;28;1910;-57
2022/01/14 02:43:17;;;;;;;;;;;;;;;-6.29;79.65;100808.88;5011526;28;875;-57
2022/01/14 02:45:51;;;;;;;;;;;;;;;-6.18;78.44;100802.47;5011581;28;922;-57
2022/01/14 02:48:20;;;;;;;;;;;;;;;-6.10;77.71;100793.88;5011344;28;948;-57
2022/01/14 02:50:59;;;;;;;;;;;;;;;-6.07;76.97;100796.00;5011393;28;884;-57
2022/01/14 02:53:57;;;;;;;;;;;;;;;-6.03;76.89;100794.41;5011364;28;856;-57
2022/01/14 02:56:19;;;;;;;;;;;;;;;-6.05;76.68;100793.06;5010473;28;1099;-57
2022/01/14 02:58:47;;;;;;;;;;;;;;;-6.08;77.16;100789.03;5011618;28;852;-57
2022/01/14 03:01:21;;;;;;;;;;;;;;;-6.04;77.11;100789.28;5011185;28;1886;-57
2022/01/14 03:03:49;;;;;;;;;;;;;;;-6.11;76.83;100792.22;5011479;28;836;-57
2022/01/14 03:06:15;;;;;;;;;;;;;;;-6.16;76.84;100784.16;5011494;28;891;-57
2022/01/14 03:08:42;;;;;;;;;;;;;;;-6.22;77.87;100793.28;5011547;28;896;-57
2022/01/14 03:11:10;;;;;;;;;;;;;;;-6.27;77.92;100774.44;5011284;28;848;-57
2022/01/14 03:13:36;;;;;;;;;;;;;;;-6.39;77.83;100780.88;5011209;28;860;-57
2022/01/14 03:16:04;;;;;;;;;;;;;;;-6.53;78.51;100777.06;5011113;28;912;-57
2022/01/14 03:18:37;;;;;;;;;;;;;;;-6.68;79.04;100777.00;5011133;28;841;-58
2022/01/14 03:21:14;;;;;;;;;;;;;;;-6.65;79.83;100781.88;5010938;28;1902;-57
2022/01/14 03:23:46;;;;;;;;;;;;;;;-6.52;79.93;100772.50;5014193;28;817;-57
2022/01/14 03:26:14;;;;;;;;;;;;;;;-6.45;79.02;100771.16;5014601;28;843;-57
2022/01/14 03:28:41;;;;;;;;;;;;;;;-6.41;78.55;100763.38;5014482;28;991;-57
2022/01/14 03:31:08;;;;;;;;;;;;;;;-6.31;78.66;100758.03;5014445;28;915;-57
2022/01/14 03:33:35;;;;;;;;;;;;;;;-6.28;78.38;100767.44;5014088;28;1233;-57
2022/01/14 03:36:02;;;;;;;;;;;;;;;-6.27;77.89;100755.59;5014850;28;1090;-57
2022/01/14 03:38:29;;;;;;;;;;;;;;;-6.30;77.88;100762.31;5014285;28;1013;-57
2022/01/14 03:40:56;;;;;;;;;;;;;;;-6.40;78.23;100759.59;5014266;28;1966;-57
2022/01/14 03:43:22;;;;;;;;;;;;;;;-6.46;77.83;100764.19;5014323;28;868;-57
2022/01/14 03:45:50;;;;;;;;;;;;;;;-6.49;78.10;100758.53;5014294;28;895;-57
2022/01/14 03:48:17;;;;;;;;;;;;;;;-6.53;79.08;100760.91;5014148;28;825;-57
2022/01/14 03:50:43;;;;;;;;;;;;;;;-6.64;79.31;100757.41;5014116;28;972;-57
2022/01/14 03:53:13;;;;;;;;;;;;;;;-6.66;79.01;100758.75;5014422;28;873;-57
2022/01/14 03:55:40;;;;;;;;;;;;;;;-6.68;79.69;100761.69;5014006;28;854;-57
2022/01/14 03:58:07;;;;;;;;;;;;;;;-6.81;79.82;100759.50;5014052;28;840;-57
2022/01/14 04:00:34;;;;;;;;;;;;;;;-6.84;80.03;100751.97;5013772;28;1954;-57
2022/01/14 04:03:01;;;;;;;;;;;;;;;-7.03;80.68;100749.72;5014145;28;872;-57
2022/01/14 04:05:27;;;;;;;;;;;;;;;-7.11;80.91;100750.22;5014140;28;833;-57
2022/01/14 04:07:53;;;;;;;;;;;;;;;-7.24;81.20;100743.44;5013891;28;872;-58
2022/01/14 04:10:21;;;;;;;;;;;;;;;-7.30;81.10;100751.72;5013794;28;884;-57
2022/01/14 04:12:54;;;;;;;;;;;;;;;-7.34;81.72;100745.25;5013733;28;833;-57
2022/01/14 04:15:36;;;;;;;;;;;;;;;-7.27;82.00;100743.97;5013722;28;821;-58
2022/01/14 04:18:04;;;;;;;;;;;;;;;-7.30;82.30;100744.47;5013665;28;813;-58
2022/01/14 04:20:31;;;;;;;;;;;;;;;-7.44;nan;100744.13;5013494;28;1890;-57
2022/01/14 04:22:57;;;;;;;;;;;;;;;-7.58;83.29;100739.47;5013527;28;845;-57
2022/01/14 04:25:24;;;;;;;;;;;;;;;-7.69;82.66;100744.78;5013485;28;841;-58
2022/01/14 04:27:51;;;;;;;;;;;;;;;-7.72;82.84;100739.94;5013323;28;884;-57
2022/01/14 04:30:18;;;;;;;;;;;;;;;-7.81;83.22;100733.41;5013525;28;896;-57
2022/01/14 04:32:45;;;;;;;;;;;;;;;-7.94;83.08;100729.28;5013423;28;867;-57
2022/01/14 04:35:11;;;;;;;;;;;;;;;-8.12;83.58;100725.13;5013322;28;1506;-57
2022/01/14 04:37:38;;;;;;;;;;;;;;;-8.21;84.90;100719.41;5013341;28;911;-57
2022/01/14 04:40:06;;;;;;;;;;;;;;;-8.19;83.76;100732.59;5013240;28;891;-58
2022/01/14 04:42:33;;;;;;;;;;;;;;;-8.18;84.59;100731.50;5013124;28;1914;-58
2022/01/14 04:44:59;;;;;;;;;;;;;;;-8.14;85.16;100739.88;5013195;28;888;-58
2022/01/14 04:47:59;;;;;;;;;;;;;;;-8.15;84.91;100743.59;5013039;28;848;-58
2022/01/14 04:50:19;;;;;;;;;;;;;;;-8.20;84.58;100736.31;5009686;28;979;-58
2022/01/14 04:52:47;;;;;;;;;;;;;;;-8.18;84.37;100736.06;5012944;28;951;-58
2022/01/14 04:55:15;;;;;;;;;;;;;;;-8.16;84.47;100728.56;5012921;28;864;-58
2022/01/14 04:57:41;;;;;;;;;;;;;;;-8.11;85.24;100724.03;5012830;28;880;-58
2022/01/14 05:00:10;;;;;;;;;;;;;;;-8.11;85.64;100731.28;5012808;28;805;-58
2022/01/14 05:02:37;;;;;;;;;;;;;;;-8.11;85.04;100736.66;5012782;28;1886;-58
2022/01/14 05:05:04;;;;;;;;;;;;;;;-8.07;85.22;100732.41;5012939;28;861;-58
2022/01/14 05:07:30;;;;;;;;;;;;;;;-7.95;85.35;100724.19;5012731;28;821;-58
2022/01/14 05:12:30;;;;;;;;;;;;;;;-7.69;85.07;100712.56;5012641;28;737;-58
2022/01/14 05:14:56;;;;;;;;;;;;;;;-7.48;85.25;100707.31;5012814;28;809;-58
2022/01/14 05:17:23;;;;;;;;;;;;;;;-7.27;84.57;100700.19;5012577;28;837;-58
2022/01/14 05:19:50;;;;;;;;;;;;;;;-7.24;83.49;100697.75;5012569;28;977;-58
2022/01/14 05:22:17;;;;;;;;;;;;;;;-7.25;84.22;100690.78;5012429;28;1925;-58
2022/01/14 05:24:44;;;;;;;;;;;;;;;-7.21;83.56;100677.63;5012351;28;963;-58
2022/01/14 05:27:10;;;;;;;;;;;;;;;-7.11;84.21;100679.56;5012357;28;813;-58
2022/01/14 05:29:37;;;;;;;;;;;;;;;-7.07;83.99;100673.38;5012328;28;844;-58
2022/01/14 05:32:04;;;;;;;;;;;;;;;-6.90;82.80;100670.47;5012230;28;868;-58
2022/01/14 05:34:32;;;;;;;;;;;;;;;-6.84;82.98;100666.75;5012228;28;1222;-58
2022/01/14 05:36:59;;;;;;;;;;;;;;;-6.84;82.48;100668.63;5012206;28;872;-58
2022/01/14 05:39:25;;;;;;;;;;;;;;;-6.86;81.80;100666.19;5012186;28;813;-58
2022/01/14 05:41:52;;;;;;;;;;;;;;;-6.85;82.30;100672.38;5012055;28;1910;-58
2022/01/14 05:44:19;;;;;;;;;;;;;;;-6.84;82.33;100661.38;5011888;28;932;-58
2022/01/14 05:46:45;;;;;;;;;;;;;;;-6.79;82.03;100664.06;5011710;28;809;-58
2022/01/14 05:49:12;;;;;;;;;;;;;;;-6.67;81.33;100671.09;5012022;28;853;-58
2022/01/14 05:51:39;;;;;;;;;;;;;;;-6.65;81.12;100667.06;5012023;28;861;-58
2022/01/14 05:54:05;;;;;;;;;;;;;;;-6.55;80.63;100670.81;5011854;28;845;-58
2022/01/14 05:56:32;;;;;;;;;;;;;;;-6.53;80.24;100665.97;5011987;28;888;-58
2022/01/14 05:58:58;;;;;;;;;;;;;;;-6.52;80.51;100660.34;4994059;28;696;-58
2022/01/14 06:01:25;;;;;;;;;;;;;;;-6.45;81.02;100658.19;5011760;28;1882;-58
2022/01/14 06:03:51;;;;;;;;;;;;;;;-6.37;80.11;100654.16;5011770;28;928;-58
2022/01/14 06:06:18;;;;;;;;;;;;;;;-6.25;80.67;100656.56;4994238;28;861;-58
2022/01/14 06:08:48;;;;;;;;;;;;;;;-6.08;80.67;100657.13;5011770;28;856;-58
2022/01/14 06:11:15;;;;;;;;;;;;;;;-5.80;79.81;100663.00;5011656;28;971;-59
2022/01/14 06:13:42;;;;;;;;;;;;;;;-5.50;79.63;100664.81;5011778;28;825;-59
2022/01/14 06:16:09;;;;;;;;;;;;;;;-5.19;79.73;100652.00;5011673;28;876;-58
2022/01/14 06:18:35;;;;;;;;;;;;;;;-4.85;79.63;100648.59;4994093;28;1296;-58
2022/01/14 06:21:01;;;;;;;;;;;;;;;-4.64;78.48;100635.00;4993946;28;1886;-58
2022/01/14 06:23:27;;;;;;;;;;;;;;;-4.48;78.13;100646.47;5011622;28;836;-58
2022/01/14 06:25:53;;;;;;;;;;;;;;;-4.41;75.73;100633.50;5011654;28;884;-58
2022/01/14 06:28:20;;;;;;;;;;;;;;;-4.25;74.58;100632.25;5011352;28;816;-57
2022/01/14 06:30:46;;;;;;;;;;;;;;;-4.20;73.88;100628.75;5011588;28;873;-58
2022/01/14 06:33:13;;;;;;;;;;;;;;;-4.01;74.15;100621.53;5011232;28;1310;-58
2022/01/14 06:35:39;;;;;;;;;;;;;;;-3.92;73.76;100627.91;5011975;28;985;-58
2022/01/14 06:38:05;;;;;;;;;;;;;;;-3.97;73.00;100627.16;5011567;28;924;-57
2022/01/14 06:40:33;;;;;;;;;;;;;;;-4.08;72.38;100622.94;5011477;28;1918;-58
2022/01/14 06:43:00;;;;;;;;;;;;;;;-3.98;73.48;100614.75;5011476;28;805;-58
2022/01/14 06:45:27;;;;;;;;;;;;;;;-3.66;73.25;100610.66;5011484;28;876;-57
2022/01/14 06:47:54;;;;;;;;;;;;;;;-3.63;71.99;100620.88;4993904;28;1640;-57
2022/01/14 06:50:21;;;;;;;;;;;;;;;-3.87;72.77;100613.56;4993931;28;837;-57
2022/01/14 06:52:47;;;;;;;;;;;;;;;-3.85;73.56;100605.97;5011395;28;856;-57
2022/01/14 06:55:14;;;;;;;;;;;;;;;-3.80;72.87;100597.81;5011251;28;912;-57
2022/01/14 06:57:40;;;;;;;;;;;;;;;-3.90;73.15;100592.53;5014236;28;812;-57
2022/01/14 07:00:09;;;;;;;;;;;;;;;-3.77;72.76;100586.44;5015091;28;888;-57
2022/01/14 07:02:34;;;;;;;;;;;;;;;-3.58;74.30;100591.09;5015309;28;1887;-56
2022/01/14 07:05:02;;;;;;;;;;;;;;;-3.33;73.04;100581.84;5015125;28;884;-56
2022/01/14 07:07:28;;;;;;;;;;;;;;;-3.21;72.38;100576.03;5014937;28;868;-56
2022/01/14 07:09:57;;;;;;;;;;;;;;;-3.03;72.38;100580.66;5014960;28;868;-56
2022/01/14 07:12:24;;;;;;;;;;;;;;;-2.79;72.55;100574.34;5014685;28;853;-56
2022/01/14 07:14:50;;;;;;;;;;;;;;;-2.62;72.36;100574.63;5014762;28;880;-56
2022/01/14 07:17:17;;;;;;;;;;;;;;;-2.66;70.82;100573.59;5014790;28;910;-56
2022/01/14 07:19:43;;;;;;;;;;;;;;;-2.89;70.81;100575.31;5014720;28;828;-56
2022/01/14 07:22:10;;;;;;;;;;;;;;;-2.84;71.00;100571.72;5014500;28;1902;-56
2022/01/14 07:24:36;;;;;;;;;;;;;;;-2.95;71.42;100555.63;5014639;28;923;-56
2022/01/14 07:27:03;;;;;;;;;;;;;;;-2.90;71.94;100554.78;5014606;28;872;-56
2022/01/14 07:29:30;;;;;;;;;;;;;;;-2.73;72.17;100557.75;5014606;28;904;-55
2022/01/14 07:31:56;;;;;;;;;;;;;;;-2.77;70.69;100550.53;5014417;28;1138;-56
2022/01/14 07:34:23;;;;;;;;;;;;;;;-2.63;71.50;100545.94;5014594;28;1258;-55
2022/01/14 07:36:49;;;;;;;;;;;;;;;-2.59;72.47;100546.16;5014399;28;892;-56
2022/01/14 07:39:18;;;;;;;;;;;;;;;-2.47;72.20;100547.31;5014427;28;817;-56
2022/01/14 07:41:45;;;;;;;;;;;;;;;-2.20;71.38;100534.09;5014179;28;1981;-56
2022/01/14 07:44:11;;;;;;;;;;;;;;;-1.93;71.63;100533.34;5014333;28;860;-56
2022/01/14 07:46:38;;;;;;;;;;;;;;;-1.95;71.05;100530.91;5014341;28;832;-56
2022/01/14 07:49:04;;;;;;;;;;;;;;;-1.94;71.02;100523.59;4996825;28;921;-56
2022/01/14 07:51:31;;;;;;;;;;;;;;;-1.88;69.47;100511.56;5014093;28;1076;-55
2022/01/14 07:53:58;;;;;;;;;;;;;;;-1.76;70.99;100508.34;5014199;28;836;-55
2022/01/14 07:56:24;;;;;;;;;;;;;;;-1.78;70.77;100505.94;5014056;28;833;-55
2022/01/14 07:58:51;;;;;;;;;;;;;;;-1.88;70.58;100495.28;5014009;28;899;-56
2022/01/14 08:01:18;;;;;;;;;;;;;;;-1.76;71.58;100494.78;5013989;28;1870;-55
2022/01/14 08:03:44;;;;;;;;;;;;;;;-1.87;71.04;100491.50;5013939;28;813;-55
2022/01/14 08:06:11;;;;;;;;;;;;;;;-1.80;72.22;100485.66;5014094;28;832;-55
2022/01/14 08:08:38;;;;;;;;;;;;;;;-1.62;71.54;100481.22;5013416;28;912;-55
2022/01/14 08:11:05;;;;;;;;;;;;;;;-1.58;71.04;100480.31;5013891;28;929;-55
2022/01/14 08:13:32;;;;;;;;;;;;;;;-1.52;71.02;100476.38;5013848;28;982;-55
2022/01/14 08:15:59;;;;;;;;;;;;;;;-1.43;70.88;100468.31;5014038;28;924;-55
2022/01/14 08:18:25;;;;;;;;;;;;;;;-1.21;70.83;100464.06;5013830;28;840;-55
2022/01/14 08:20:53;;;;;;;;;;;;;;;-1.09;70.23;100465.09;4996292;28;1883;-56
2022/01/14 08:23:19;;;;;;;;;;;;;;;-1.02;69.11;100453.81;5013772;28;904;-56
2022/01/14 08:25:45;;;;;;;;;;;;;;;-0.96;70.91;100449.06;5013686;28;945;-55
2022/01/14 08:28:11;;;;;;;;;;;;;;;-0.91;67.77;100451.66;5013949;28;824;-55
2022/01/14 08:30:38;;;;;;;;;;;;;;;-1.11;67.78;100445.63;5013702;28;828;-55
2022/01/14 08:33:04;;;;;;;;;;;;;;;-1.11;69.02;100437.47;5013411;28;820;-55
2022/01/14 08:35:31;;;;;;;;;;;;;;;-0.99;68.83;100436.13;5013020;28;1379;-55
2022/01/14 08:37:57;;;;;;;;;;;;;;;-0.95;68.20;100421.59;5013494;28;859;-55
2022/01/14 08:40:24;;;;;;;;;;;;;;;-0.89;68.29;100433.94;5013127;28;932;-55
2022/01/14 08:42:54;;;;;;;;;;;;;;;-0.69;69.14;100431.81;5013238;28;880;-55
2022/01/14 08:45:21;;;;;;;;;;;;;;;-0.63;69.03;100430.56;5013416;28;825;-55
2022/01/14 08:47:52;;;;;;;;;;;;;;;-0.63;68.75;100436.78;5013455;28;980;-55
2022/01/14 08:50:20;;;;;;;;;;;;;;;-0.70;68.25;100433.75;5013086;28;1240;-55
2022/01/14 08:52:46;;;;;;;;;;;;;;;-0.64;70.09;100424.34;5013010;28;797;-55
2022/01/14 08:55:15;;;;;;;;;;;;;;;-0.45;68.16;100417.88;5012928;28;852;-55
2022/01/14 08:57:42;;;;;;;;;;;;;;;-0.63;67.77;100415.06;5012771;28;892;-55
2022/01/14 09:00:09;;;;;;;;;;;;;;;-0.70;68.68;100413.94;5012731;28;882;-55
2022/01/14 09:02:36;;;;;;;;;;;;;;;-0.48;67.87;100421.22;5012714;28;1993;-55
2022/01/14 09:05:03;;;;;;;;;;;;;;;-0.45;68.61;100415.16;5012778;28;821;-54
2022/01/14 09:07:29;;;;;;;;;;;;;;;-0.37;68.57;100414.38;5012631;28;912;-55
2022/01/14 09:09:55;;;;;;;;;;;;;;;-0.34;67.68;100408.34;5012692;28;879;-55
2022/01/14 09:12:22;;;;;;;;;;;;;;;-0.42;67.88;100415.34;5012736;28;833;-55
2022/01/14 09:14:48;;;;;;;;;;;;;;;-0.42;67.97;100414.53;5012690;28;951;-55
2022/01/14 09:17:17;;;;;;;;;;;;;;;-0.28;68.36;100403.56;5012561;28;878;-55
2022/01/14 09:19:44;;;;;;;;;;;;;;;-0.08;67.40;100396.75;5011763;28;840;-55
2022/01/14 09:22:15;;;;;;;;;;;;;;;-0.04;67.00;100381.41;5012463;28;1886;-55
2022/01/14 09:24:42;;;;;;;;;;;;;;;-0.12;67.74;100385.72;5012259;28;951;-55
2022/01/14 09:27:09;;;;;;;;;;;;;;;0.08;67.18;100383.50;5012752;28;829;-55
2022/01/14 09:29:35;;;;;;;;;;;;;;;0.16;67.82;100380.00;5012389;28;899;-55
2022/01/14 09:32:02;;;;;;;;;;;;;;;0.24;68.23;100370.25;5012380;28;833;-55
2022/01/14 09:34:29;;;;;;;;;;;;;;;0.18;65.79;100369.59;5012281;28;1326;-55
2022/01/14 09:36:55;;;;;;;;;;;;;;;0.13;65.85;100367.84;5012319;28;888;-55
2022/01/14 09:39:22;;;;;;;;;;;;;;;0.13;66.72;100359.69;5012189;28;888;-56
2022/01/14 09:41:48;;;;;;;;;;;;;;;0.25;67.28;100353.59;5012045;28;1923;-55
2022/01/14 09:44:15;;;;;;;;;;;;;;;0.34;66.61;100346.28;5012267;28;892;-55
2022/01/14 09:46:42;;;;;;;;;;;;;;;0.40;65.68;100344.16;5012154;28;820;-55
2022/01/14 09:49:07;;;;;;;;;;;;;;;0.50;65.97;100334.91;5012101;28;840;-54
2022/01/14 09:51:34;;;;;;;;;;;;;;;0.50;64.62;100326.72;4994509;28;947;-54
2022/01/14 09:54:02;;;;;;;;;;;;;;;0.61;65.59;100331.50;5012039;28;912;-55
2022/01/14 09:56:28;;;;;;;;;;;;;;;0.67;66.41;100323.19;5011651;28;896;-55
2022/01/14 09:58:55;;;;;;;;;;;;;;;0.80;66.18;100316.75;5011974;28;844;-55
2022/01/14 10:01:22;;;;;;;;;;;;;;;0.87;65.64;100311.59;5012059;28;1898;-55
2022/01/14 10:04:02;;;;;;;;;;;;;;;0.92;65.06;100302.50;5011823;28;887;-55
2022/01/14 10:06:38;;;;;;;;;;;;;;;0.97;64.18;100294.94;5011802;28;880;-55
2022/01/14 10:09:08;;;;;;;;;;;;;;;1.13;66.22;100297.09;5011900;28;801;-55
2022/01/14 10:11:35;;;;;;;;;;;;;;;1.29;63.54;100281.81;5011724;28;886;-56
2022/01/14 10:14:28;;;;;;;;;;;;;;;1.33;63.85;100276.53;5011795;28;848;-57
2022/01/14 10:16:56;;;;;;;;;;;;;;;1.38;62.98;100266.22;5008268;28;1045;-56
2022/01/14 10:19:24;;;;;;;;;;;;;;;1.51;63.77;100245.31;5011671;28;863;-55
2022/01/14 10:21:51;;;;;;;;;;;;;;;1.60;63.15;100242.53;5011518;28;1886;-55
2022/01/14 10:24:18;;;;;;;;;;;;;;;1.70;63.27;100230.44;5011719;28;922;-57
2022/01/14 10:26:49;;;;;;;;;;;;;;;1.73;61.91;100222.41;5011834;28;869;-57
2022/01/14 10:29:24;;;;;;;;;;;;;;;1.87;62.48;100213.94;5011601;28;813;-57
2022/01/14 10:31:51;;;;;;;;;;;;;;;2.02;61.97;100207.09;5013464;28;887;-58
2022/01/14 10:34:17;;;;;;;;;;;;;;;2.09;62.37;100204.63;5015507;28;1299;-57
2022/01/14 10:36:44;;;;;;;;;;;;;;;2.18;63.00;100193.66;5015663;28;875;-57
2022/01/14 10:39:22;;;;;;;;;;;;;;;2.35;61.78;100188.00;5015388;28;931;-58
2022/01/14 10:41:49;;;;;;;;;;;;;;;2.31;62.62;100175.38;5015259;28;1918;-57
2022/01/14 10:44:34;;;;;;;;;;;;;;;2.33;61.36;100173.09;5015408;28;852;-57
2022/01/14 10:47:12;;;;;;;;;;;;;;;2.29;62.28;100167.53;5015105;28;901;-57
2022/01/14 10:49:55;;;;;;;;;;;;;;;2.31;62.42;100159.81;5015636;28;876;-58
2022/01/14 10:52:27;;;;;;;;;;;;;;;2.55;64.07;100144.59;5015212;28;857;-58
2022/01/14 10:54:57;;;;;;;;;;;;;;;2.77;63.23;100148.81;5015199;28;923;-58
2022/01/14 10:57:28;;;;;;;;;;;;;;;2.78;61.50;100142.22;5015213;28;864;-58
2022/01/14 10:59:58;;;;;;;;;;;;;;;2.88;60.86;100144.50;5015202;28;888;-56
2022/01/14 11:02:32;;;;;;;;;;;;;;;2.85;61.03;100132.31;5014877;28;1957;-56
2022/01/14 11:05:02;;;;;;;;;;;;;;;3.11;61.29;100119.44;5014902;28;881;-57
2022/01/14 11:07:31;;;;;;;;;;;;;;;3.11;59.54;100116.69;5015006;28;1052;-56
2022/01/14 11:09:59;;;;;;;;;;;;;;;3.35;59.00;100118.56;4981313;28;1207;-57
2022/01/14 11:12:25;;;;;;;;;;;;;;;3.37;58.75;100108.91;4997296;28;1204;-56
2022/01/14 11:14:52;;;;;;;;;;;;;;;3.22;58.74;100099.50;5014856;28;891;-56
2022/01/14 11:17:20;;;;;;;;;;;;;;;3.23;59.92;100101.06;5014857;28;860;-56
2022/01/14 11:19:47;;;;;;;;;;;;;;;3.29;58.36;100098.91;5014801;28;809;-56
2022/01/14 11:24:59;;;;;;;;;;;;;;;3.41;59.14;100079.72;5000291;28;671;-56
2022/01/14 11:27:26;;;;;;;;;;;;;;;3.47;60.43;100078.34;4997315;28;1312;-56
2022/01/14 11:29:58;;;;;;;;;;;;;;;3.54;58.59;100074.22;5014814;28;905;-57
2022/01/14 11:32:25;;;;;;;;;;;;;;;3.54;59.63;100069.56;4996746;28;943;-58
2022/01/14 11:34:52;;;;;;;;;;;;;;;3.61;59.59;100067.03;5014424;28;1262;-58
2022/01/14 11:37:28;;;;;;;;;;;;;;;3.79;60.10;100066.69;4996979;28;876;-58
2022/01/14 11:39:59;;;;;;;;;;;;;;;3.92;59.63;100048.28;5014333;28;951;-58
2022/01/14 11:42:41;;;;;;;;;;;;;;;4.06;59.28;100051.38;4996435;28;1915;-58
2022/01/14 11:45:10;;;;;;;;;;;;;;;4.26;59.35;100055.78;4996548;28;1459;-57
2022/01/14 11:47:43;;;;;;;;;;;;;;;4.37;57.91;100038.84;4980566;28;1436;-59
2022/01/14 11:50:19;;;;;;;;;;;;;;;4.18;57.26;100023.94;5014460;28;837;-59
2022/01/14 11:52:48;;;;;;;;;;;;;;;4.14;59.35;100016.78;5014036;28;840;-59
2022/01/14 11:55:24;;;;;;;;;;;;;;;4.18;58.71;100002.06;4996651;28;1331;-58
2022/01/14 11:57:55;;;;;;;;;;;;;;;4.32;59.00;100006.28;5014379;28;813;-58
2022/01/14 12:00:30;;;;;;;;;;;;;;;4.46;58.06;99999.19;5014065;28;880;-58
2022/01/14 12:03:26;;;;;;;;;;;;;;;4.63;56.85;99995.28;5013889;28;1882;-58
2022/01/14 12:05:55;;;;;;;;;;;;;;;4.61;56.85;99983.06;5013606;28;935;-59
2022/01/14 12:08:28;;;;;;;;;;;;;;;4.54;56.34;99974.72;5014240;28;895;-59
2022/01/14 12:11:00;;;;;;;;;;;;;;;4.60;57.57;99967.81;4996609;28;828;-58
2022/01/14 12:13:41;;;;;;;;;;;;;;;4.80;57.55;99977.63;4980144;28;1406;-58
2022/01/14 12:17:12;;;;;;;;;;;;;;;4.87;56.87;99963.31;5013630;28;888;-58
2022/01/14 12:19:15;;;;;;;;;;;;;;;5.05;57.01;99960.91;4988880;28;1504;-58
2022/01/14 12:21:54;;;;;;;;;;;;;;;5.08;57.65;99949.25;5013194;28;1890;-59
2022/01/14 12:24:30;;;;;;;;;;;;;;;5.10;56.83;99939.50;4996036;28;1188;-58
2022/01/14 12:27:11;;;;;;;;;;;;;;;5.26;57.35;99946.84;5013611;28;958;-58
2022/01/14 12:29:37;;;;;;;;;;;;;;;5.23;55.96;99933.88;4995432;28;1435;-58
2022/01/14 12:32:04;;;;;;;;;;;;;;;5.25;56.75;99928.81;5013678;28;899;-58
2022/01/14 12:34:35;;;;;;;;;;;;;;;5.20;56.74;99929.09;5013200;28;1282;-58
2022/01/14 12:37:03;;;;;;;;;;;;;;;5.22;56.83;99924.06;4995943;28;853;-58
2022/01/14 12:39:30;;;;;;;;;;;;;;;5.30;56.20;99929.28;4995932;28;825;-58
2022/01/14 12:41:57;;;;;;;;;;;;;;;5.24;56.13;99921.75;5013198;28;2007;-58
2022/01/14 12:44:24;;;;;;;;;;;;;;;5.15;55.65;99902.00;5013533;28;861;-58
2022/01/14 12:47:08;;;;;;;;;;;;;;;5.03;55.42;99916.66;5013169;28;884;-58
2022/01/14 12:49:39;;;;;;;;;;;;;;;5.07;55.67;99914.78;5013035;28;1265;-58
2022/01/14 12:52:07;;;;;;;;;;;;;;;5.16;56.09;99904.38;4995940;28;1197;-58
2022/01/14 12:54:38;;;;;;;;;;;;;;;5.11;55.94;99905.47;5013274;28;881;-58
2022/01/14 12:57:06;;;;;;;;;;;;;;;5.30;56.84;99903.84;5013026;28;824;-57
2022/01/14 12:59:42;;;;;;;;;;;;;;;5.20;56.33;99899.75;4995114;28;1353;-59
2022/01/14 13:02:16;;;;;;;;;;;;;;;5.21;56.24;99904.09;5012804;28;1957;-58
2022/01/14 13:04:42;;;;;;;;;;;;;;;5.20;56.89;99893.47;5012956;28;968;-58
2022/01/14 13:07:11;;;;;;;;;;;;;;;5.28;57.02;99904.19;4995410;28;1363;-58
2022/01/14 13:09:38;;;;;;;;;;;;;;;5.34;56.98;99895.69;5012862;28;978;-58
2022/01/14 13:12:06;;;;;;;;;;;;;;;5.42;56.42;99895.44;4995281;28;1177;-58
2022/01/14 13:14:38;;;;;;;;;;;;;;;5.46;57.63;99895.50;5012636;28;801;-59
2022/01/14 13:17:13;;;;;;;;;;;;;;;5.52;58.01;99896.78;4994940;28;1294;-58
2022/01/14 13:19:41;;;;;;;;;;;;;;;5.63;57.22;99892.28;5012356;28;869;-58
2022/01/14 13:22:10;;;;;;;;;;;;;;;5.62;56.70;99881.66;4994790;28;1890;-58
2022/01/14 13:24:38;;;;;;;;;;;;;;;5.50;56.76;99880.72;4994680;28;1240;-58
2022/01/14 13:27:07;;;;;;;;;;;;;;;5.48;57.44;99868.50;4994961;28;837;-58
2022/01/14 13:29:37;;;;;;;;;;;;;;;5.55;57.31;99878.78;5013205;28;893;-58
2022/01/14 13:32:05;;;;;;;;;;;;;;;5.69;57.68;99868.84;5012392;28;955;-58